sensor_id;sensor_type;location;lat;lon;timestamp;P1;durP1;ratioP1;P2;durP2;ratioP2
74152;SDS011;62505;46.070;14.492;2023-06-01T00:02:23;7.07;;;5.18;;
74152;SDS011;62505;46.070;14.492;2023-06-01T00:04:51;8.75;;;5.90;;
74152;SDS011;62505;46.070;14.492;2023-06-01T00:07:18;6.55;;;5.25;;
74152;SDS011;62505;46.070;14.492;2023-06-01T00:09:46;8.05;;;5.68;;
74152;SDS011;62505;46.070;14.492;2023-06-01T00:12:12;10.43;;;5.65;;
74152;SDS011;62505;46.070;14.492;2023-06-01T00:14:39;6.82;;;5.32;;
74152;SDS011;62505;46.070;14.492;2023-06-01T00:17:06;9.27;;;5.38;;
74152;SDS011;62505;46.070;14.492;2023-06-01T00:19:36;8.70;;;5.30;;
74152;SDS011;62505;46.070;14.492;2023-06-01T00:22:03;7.63;;;5.78;;
74152;SDS011;62505;46.070;14.492;2023-06-01T00:24:32;8.77;;;5.80;;
74152;SDS011;62505;46.070;14.492;2023-06-01T00:26:59;8.65;;;5.40;;
74152;SDS011;62505;46.070;14.492;2023-06-01T00:29:26;7.85;;;5.85;;
74152;SDS011;62505;46.070;14.492;2023-06-01T00:31:53;10.00;;;6.22;;
74152;SDS011;62505;46.070;14.492;2023-06-01T00:34:20;8.32;;;5.78;;
74152;SDS011;62505;46.070;14.492;2023-06-01T00:36:48;6.57;;;5.13;;
74152;SDS011;62505;46.070;14.492;2023-06-01T00:39:15;10.30;;;5.80;;
74152;SDS011;62505;46.070;14.492;2023-06-01T00:41:42;8.25;;;6.00;;
74152;SDS011;62505;46.070;14.492;2023-06-01T00:44:09;7.55;;;5.88;;
74152;SDS011;62505;46.070;14.492;2023-06-01T00:46:36;10.02;;;5.57;;
74152;SDS011;62505;46.070;14.492;2023-06-01T00:49:03;6.78;;;5.32;;
74152;SDS011;62505;46.070;14.492;2023-06-01T00:51:30;9.35;;;6.50;;
74152;SDS011;62505;46.070;14.492;2023-06-01T00:54:00;9.43;;;6.10;;
74152;SDS011;62505;46.070;14.492;2023-06-01T00:56:27;6.65;;;5.13;;
74152;SDS011;62505;46.070;14.492;2023-06-01T00:58:56;7.50;;;5.05;;
74152;SDS011;62505;46.070;14.492;2023-06-01T01:01:23;6.97;;;5.75;;
74152;SDS011;62505;46.070;14.492;2023-06-01T01:03:51;6.75;;;5.05;;
74152;SDS011;62505;46.070;14.492;2023-06-01T01:06:27;6.72;;;5.43;;
74152;SDS011;62505;46.070;14.492;2023-06-01T01:09:17;7.68;;;5.53;;
74152;SDS011;62505;46.070;14.492;2023-06-01T01:11:51;8.40;;;5.40;;
74152;SDS011;62505;46.070;14.492;2023-06-01T01:14:25;10.48;;;5.53;;
74152;SDS011;62505;46.070;14.492;2023-06-01T01:16:57;7.85;;;5.60;;
74152;SDS011;62505;46.070;14.492;2023-06-01T01:19:35;8.35;;;5.70;;
74152;SDS011;62505;46.070;14.492;2023-06-01T01:22:25;7.93;;;5.53;;
74152;SDS011;62505;46.070;14.492;2023-06-01T01:25:11;6.68;;;4.93;;
74152;SDS011;62505;46.070;14.492;2023-06-01T01:27:51;9.20;;;5.35;;
74152;SDS011;62505;46.070;14.492;2023-06-01T01:30:32;8.82;;;5.72;;
74152;SDS011;62505;46.070;14.492;2023-06-01T01:33:02;7.72;;;5.80;;
74152;SDS011;62505;46.070;14.492;2023-06-01T01:35:30;8.15;;;5.47;;
74152;SDS011;62505;46.070;14.492;2023-06-01T01:37:58;7.13;;;5.80;;
74152;SDS011;62505;46.070;14.492;2023-06-01T01:40:25;6.43;;;5.22;;
74152;SDS011;62505;46.070;14.492;2023-06-01T01:42:51;9.00;;;5.20;;
74152;SDS011;62505;46.070;14.492;2023-06-01T01:45:20;10.13;;;5.68;;
74152;SDS011;62505;46.070;14.492;2023-06-01T01:47:51;7.45;;;5.05;;
74152;SDS011;62505;46.070;14.492;2023-06-01T01:50:24;6.45;;;5.00;;
74152;SDS011;62505;46.070;14.492;2023-06-01T01:52:55;6.47;;;5.45;;
74152;SDS011;62505;46.070;14.492;2023-06-01T01:55:23;8.30;;;6.00;;
74152;SDS011;62505;46.070;14.492;2023-06-01T01:57:52;6.72;;;5.38;;
74152;SDS011;62505;46.070;14.492;2023-06-01T02:00:21;9.77;;;5.57;;
74152;SDS011;62505;46.070;14.492;2023-06-01T02:02:50;9.80;;;6.00;;
74152;SDS011;62505;46.070;14.492;2023-06-01T02:05:17;8.40;;;5.70;;
74152;SDS011;62505;46.070;14.492;2023-06-01T02:07:44;10.35;;;5.25;;
74152;SDS011;62505;46.070;14.492;2023-06-01T02:10:11;5.72;;;4.93;;
74152;SDS011;62505;46.070;14.492;2023-06-01T02:12:38;6.82;;;5.35;;
74152;SDS011;62505;46.070;14.492;2023-06-01T02:15:05;7.03;;;5.22;;
74152;SDS011;62505;46.070;14.492;2023-06-01T02:17:33;8.75;;;5.15;;
74152;SDS011;62505;46.070;14.492;2023-06-01T02:20:04;9.63;;;5.60;;
74152;SDS011;62505;46.070;14.492;2023-06-01T02:22:31;8.40;;;5.38;;
74152;SDS011;62505;46.070;14.492;2023-06-01T02:24:58;7.10;;;5.15;;
74152;SDS011;62505;46.070;14.492;2023-06-01T02:27:25;7.30;;;5.32;;
74152;SDS011;62505;46.070;14.492;2023-06-01T02:29:52;10.68;;;5.80;;
74152;SDS011;62505;46.070;14.492;2023-06-01T02:32:19;9.30;;;5.38;;
74152;SDS011;62505;46.070;14.492;2023-06-01T02:34:46;8.77;;;5.15;;
74152;SDS011;62505;46.070;14.492;2023-06-01T02:37:14;8.43;;;5.35;;
74152;SDS011;62505;46.070;14.492;2023-06-01T02:39:41;7.82;;;5.30;;
74152;SDS011;62505;46.070;14.492;2023-06-01T02:42:08;8.10;;;5.38;;
74152;SDS011;62505;46.070;14.492;2023-06-01T02:44:35;7.93;;;5.40;;
74152;SDS011;62505;46.070;14.492;2023-06-01T02:47:02;9.07;;;5.47;;
74152;SDS011;62505;46.070;14.492;2023-06-01T02:49:30;8.95;;;5.70;;
74152;SDS011;62505;46.070;14.492;2023-06-01T02:51:57;7.20;;;5.50;;
74152;SDS011;62505;46.070;14.492;2023-06-01T02:54:25;6.85;;;5.70;;
74152;SDS011;62505;46.070;14.492;2023-06-01T02:56:52;6.78;;;5.43;;
74152;SDS011;62505;46.070;14.492;2023-06-01T02:59:19;8.23;;;5.25;;
74152;SDS011;62505;46.070;14.492;2023-06-01T03:01:46;8.30;;;6.00;;
74152;SDS011;62505;46.070;14.492;2023-06-01T03:04:13;7.55;;;5.32;;
74152;SDS011;62505;46.070;14.492;2023-06-01T03:06:40;8.55;;;5.82;;
74152;SDS011;62505;46.070;14.492;2023-06-01T03:09:08;6.70;;;5.22;;
74152;SDS011;62505;46.070;14.492;2023-06-01T03:11:39;6.20;;;5.18;;
74152;SDS011;62505;46.070;14.492;2023-06-01T03:14:06;12.52;;;5.43;;
74152;SDS011;62505;46.070;14.492;2023-06-01T03:16:33;8.60;;;5.18;;
74152;SDS011;62505;46.070;14.492;2023-06-01T03:19:00;6.88;;;5.10;;
74152;SDS011;62505;46.070;14.492;2023-06-01T03:21:27;9.23;;;6.00;;
74152;SDS011;62505;46.070;14.492;2023-06-01T03:23:56;11.45;;;5.80;;
74152;SDS011;62505;46.070;14.492;2023-06-01T03:26:23;8.00;;;5.05;;
74152;SDS011;62505;46.070;14.492;2023-06-01T03:28:52;7.95;;;5.30;;
74152;SDS011;62505;46.070;14.492;2023-06-01T03:31:18;6.93;;;5.38;;
74152;SDS011;62505;46.070;14.492;2023-06-01T03:33:45;10.10;;;5.70;;
74152;SDS011;62505;46.070;14.492;2023-06-01T03:36:12;9.02;;;5.28;;
74152;SDS011;62505;46.070;14.492;2023-06-01T03:38:39;9.07;;;5.35;;
74152;SDS011;62505;46.070;14.492;2023-06-01T03:41:07;10.65;;;5.78;;
74152;SDS011;62505;46.070;14.492;2023-06-01T03:43:34;9.63;;;5.70;;
74152;SDS011;62505;46.070;14.492;2023-06-01T03:46:02;9.13;;;5.22;;
74152;SDS011;62505;46.070;14.492;2023-06-01T03:48:29;7.95;;;6.03;;
74152;SDS011;62505;46.070;14.492;2023-06-01T03:50:56;7.57;;;5.47;;
74152;SDS011;62505;46.070;14.492;2023-06-01T03:53:23;5.97;;;5.15;;
74152;SDS011;62505;46.070;14.492;2023-06-01T03:55:50;8.35;;;5.55;;
74152;SDS011;62505;46.070;14.492;2023-06-01T03:58:17;7.43;;;5.05;;
74152;SDS011;62505;46.070;14.492;2023-06-01T04:00:44;12.68;;;5.93;;
74152;SDS011;62505;46.070;14.492;2023-06-01T04:03:13;6.88;;;5.25;;
74152;SDS011;62505;46.070;14.492;2023-06-01T04:05:40;6.53;;;5.18;;
74152;SDS011;62505;46.070;14.492;2023-06-01T04:08:12;8.40;;;5.28;;
74152;SDS011;62505;46.070;14.492;2023-06-01T04:10:39;5.32;;;4.72;;
74152;SDS011;62505;46.070;14.492;2023-06-01T04:13:06;9.20;;;5.63;;
74152;SDS011;62505;46.070;14.492;2023-06-01T04:15:33;6.70;;;5.57;;
74152;SDS011;62505;46.070;14.492;2023-06-01T04:18:00;8.15;;;5.50;;
74152;SDS011;62505;46.070;14.492;2023-06-01T04:20:28;8.02;;;5.53;;
74152;SDS011;62505;46.070;14.492;2023-06-01T04:22:56;9.85;;;5.57;;
74152;SDS011;62505;46.070;14.492;2023-06-01T04:25:23;7.57;;;5.70;;
74152;SDS011;62505;46.070;14.492;2023-06-01T04:27:50;7.88;;;5.32;;
74152;SDS011;62505;46.070;14.492;2023-06-01T04:30:19;7.18;;;5.15;;
74152;SDS011;62505;46.070;14.492;2023-06-01T04:32:47;8.73;;;5.75;;
74152;SDS011;62505;46.070;14.492;2023-06-01T04:35:14;7.40;;;5.32;;
74152;SDS011;62505;46.070;14.492;2023-06-01T04:37:43;8.10;;;5.70;;
74152;SDS011;62505;46.070;14.492;2023-06-01T04:40:10;6.47;;;5.22;;
74152;SDS011;62505;46.070;14.492;2023-06-01T04:42:39;9.48;;;5.05;;
74152;SDS011;62505;46.070;14.492;2023-06-01T04:45:07;7.57;;;5.07;;
74152;SDS011;62505;46.070;14.492;2023-06-01T04:47:35;7.90;;;5.25;;
74152;SDS011;62505;46.070;14.492;2023-06-01T04:50:05;6.47;;;5.25;;
74152;SDS011;62505;46.070;14.492;2023-06-01T04:52:33;6.35;;;5.15;;
74152;SDS011;62505;46.070;14.492;2023-06-01T04:55:01;8.52;;;6.07;;
74152;SDS011;62505;46.070;14.492;2023-06-01T04:57:29;6.93;;;5.22;;
74152;SDS011;62505;46.070;14.492;2023-06-01T04:59:56;8.73;;;5.50;;
74152;SDS011;62505;46.070;14.492;2023-06-01T05:02:24;6.93;;;5.20;;
74152;SDS011;62505;46.070;14.492;2023-06-01T05:04:51;10.02;;;5.50;;
74152;SDS011;62505;46.070;14.492;2023-06-01T05:07:18;8.48;;;5.72;;
74152;SDS011;62505;46.070;14.492;2023-06-01T05:09:46;10.05;;;5.40;;
74152;SDS011;62505;46.070;14.492;2023-06-01T05:12:14;10.25;;;4.95;;
74152;SDS011;62505;46.070;14.492;2023-06-01T05:14:41;7.75;;;5.22;;
74152;SDS011;62505;46.070;14.492;2023-06-01T05:17:08;7.15;;;4.97;;
74152;SDS011;62505;46.070;14.492;2023-06-01T05:19:35;8.82;;;4.97;;
74152;SDS011;62505;46.070;14.492;2023-06-01T05:22:02;15.93;;;5.70;;
74152;SDS011;62505;46.070;14.492;2023-06-01T05:24:29;6.13;;;4.93;;
74152;SDS011;62505;46.070;14.492;2023-06-01T05:26:55;9.80;;;5.50;;
74152;SDS011;62505;46.070;14.492;2023-06-01T05:29:24;6.38;;;5.07;;
74152;SDS011;62505;46.070;14.492;2023-06-01T05:31:53;7.88;;;5.13;;
74152;SDS011;62505;46.070;14.492;2023-06-01T05:34:20;7.05;;;5.07;;
74152;SDS011;62505;46.070;14.492;2023-06-01T05:36:47;7.65;;;5.30;;
74152;SDS011;62505;46.070;14.492;2023-06-01T05:39:15;6.45;;;5.10;;
74152;SDS011;62505;46.070;14.492;2023-06-01T05:41:41;6.07;;;4.70;;
74152;SDS011;62505;46.070;14.492;2023-06-01T05:44:08;8.63;;;5.50;;
74152;SDS011;62505;46.070;14.492;2023-06-01T05:46:37;8.23;;;5.82;;
74152;SDS011;62505;46.070;14.492;2023-06-01T05:49:04;10.80;;;4.95;;
74152;SDS011;62505;46.070;14.492;2023-06-01T05:51:30;7.47;;;5.38;;
74152;SDS011;62505;46.070;14.492;2023-06-01T05:54:02;7.72;;;5.55;;
74152;SDS011;62505;46.070;14.492;2023-06-01T05:56:29;10.68;;;5.20;;
74152;SDS011;62505;46.070;14.492;2023-06-01T05:58:56;10.23;;;5.40;;
74152;SDS011;62505;46.070;14.492;2023-06-01T06:01:24;6.55;;;4.93;;
74152;SDS011;62505;46.070;14.492;2023-06-01T06:03:53;8.18;;;4.82;;
74152;SDS011;62505;46.070;14.492;2023-06-01T06:06:20;8.27;;;5.70;;
74152;SDS011;62505;46.070;14.492;2023-06-01T06:08:47;6.85;;;4.90;;
74152;SDS011;62505;46.070;14.492;2023-06-01T06:11:14;7.15;;;5.25;;
74152;SDS011;62505;46.070;14.492;2023-06-01T06:13:41;8.07;;;5.18;;
74152;SDS011;62505;46.070;14.492;2023-06-01T06:16:08;7.63;;;5.65;;
74152;SDS011;62505;46.070;14.492;2023-06-01T06:18:35;8.32;;;5.13;;
74152;SDS011;62505;46.070;14.492;2023-06-01T06:21:04;6.30;;;5.00;;
74152;SDS011;62505;46.070;14.492;2023-06-01T06:23:31;7.82;;;5.57;;
74152;SDS011;62505;46.070;14.492;2023-06-01T06:25:57;6.20;;;5.32;;
74152;SDS011;62505;46.070;14.492;2023-06-01T06:28:24;10.00;;;5.35;;
74152;SDS011;62505;46.070;14.492;2023-06-01T06:30:51;8.98;;;5.45;;
74152;SDS011;62505;46.070;14.492;2023-06-01T06:33:18;8.40;;;5.90;;
74152;SDS011;62505;46.070;14.492;2023-06-01T06:35:45;9.20;;;5.57;;
74152;SDS011;62505;46.070;14.492;2023-06-01T06:38:13;7.80;;;5.22;;
74152;SDS011;62505;46.070;14.492;2023-06-01T06:40:41;7.75;;;5.47;;
74152;SDS011;62505;46.070;14.492;2023-06-01T06:43:08;7.78;;;5.47;;
74152;SDS011;62505;46.070;14.492;2023-06-01T06:45:35;7.97;;;5.55;;
74152;SDS011;62505;46.070;14.492;2023-06-01T06:48:02;9.00;;;5.47;;
74152;SDS011;62505;46.070;14.492;2023-06-01T06:50:29;10.65;;;6.63;;
74152;SDS011;62505;46.070;14.492;2023-06-01T06:52:56;12.05;;;6.40;;
74152;SDS011;62505;46.070;14.492;2023-06-01T06:55:25;7.88;;;5.43;;
74152;SDS011;62505;46.070;14.492;2023-06-01T06:57:52;8.20;;;5.85;;
74152;SDS011;62505;46.070;14.492;2023-06-01T07:00:19;7.38;;;5.50;;
74152;SDS011;62505;46.070;14.492;2023-06-01T07:02:47;8.50;;;6.30;;
74152;SDS011;62505;46.070;14.492;2023-06-01T07:05:14;10.00;;;6.22;;
74152;SDS011;62505;46.070;14.492;2023-06-01T07:07:41;10.45;;;6.00;;
74152;SDS011;62505;46.070;14.492;2023-06-01T07:10:08;9.00;;;6.65;;
74152;SDS011;62505;46.070;14.492;2023-06-01T07:12:37;11.05;;;6.43;;
74152;SDS011;62505;46.070;14.492;2023-06-01T07:15:05;11.00;;;5.97;;
74152;SDS011;62505;46.070;14.492;2023-06-01T07:17:32;8.93;;;6.00;;
74152;SDS011;62505;46.070;14.492;2023-06-01T07:20:01;7.85;;;6.07;;
74152;SDS011;62505;46.070;14.492;2023-06-01T07:22:31;9.27;;;6.18;;
74152;SDS011;62505;46.070;14.492;2023-06-01T07:24:58;11.05;;;5.90;;
74152;SDS011;62505;46.070;14.492;2023-06-01T07:27:25;7.82;;;6.22;;
74152;SDS011;62505;46.070;14.492;2023-06-01T07:29:54;8.20;;;6.07;;
74152;SDS011;62505;46.070;14.492;2023-06-01T07:32:21;11.48;;;6.43;;
74152;SDS011;62505;46.070;14.492;2023-06-01T07:34:48;12.77;;;6.07;;
74152;SDS011;62505;46.070;14.492;2023-06-01T07:37:15;9.38;;;5.35;;
74152;SDS011;62505;46.070;14.492;2023-06-01T07:39:46;13.25;;;6.15;;
74152;SDS011;62505;46.070;14.492;2023-06-01T07:42:13;8.18;;;5.78;;
74152;SDS011;62505;46.070;14.492;2023-06-01T07:44:40;9.43;;;6.00;;
74152;SDS011;62505;46.070;14.492;2023-06-01T07:47:09;9.07;;;5.65;;
74152;SDS011;62505;46.070;14.492;2023-06-01T07:49:36;8.15;;;5.40;;
74152;SDS011;62505;46.070;14.492;2023-06-01T07:52:03;9.35;;;6.15;;
74152;SDS011;62505;46.070;14.492;2023-06-01T07:54:33;7.65;;;5.57;;
74152;SDS011;62505;46.070;14.492;2023-06-01T07:57:01;9.50;;;4.97;;
74152;SDS011;62505;46.070;14.492;2023-06-01T07:59:29;6.50;;;4.97;;
74152;SDS011;62505;46.070;14.492;2023-06-01T08:01:56;7.05;;;5.07;;
74152;SDS011;62505;46.070;14.492;2023-06-01T08:04:26;6.20;;;5.30;;
74152;SDS011;62505;46.070;14.492;2023-06-01T08:06:58;17.45;;;5.70;;
74152;SDS011;62505;46.070;14.492;2023-06-01T08:09:28;8.40;;;5.60;;
74152;SDS011;62505;46.070;14.492;2023-06-01T08:11:55;7.25;;;5.82;;
74152;SDS011;62505;46.070;14.492;2023-06-01T08:14:22;7.57;;;5.40;;
74152;SDS011;62505;46.070;14.492;2023-06-01T08:16:49;7.80;;;5.55;;
74152;SDS011;62505;46.070;14.492;2023-06-01T08:19:17;8.48;;;5.50;;
74152;SDS011;62505;46.070;14.492;2023-06-01T08:21:45;7.53;;;5.43;;
74152;SDS011;62505;46.070;14.492;2023-06-01T08:24:12;7.05;;;4.78;;
74152;SDS011;62505;46.070;14.492;2023-06-01T08:26:40;7.78;;;5.43;;
74152;SDS011;62505;46.070;14.492;2023-06-01T08:29:07;6.78;;;5.07;;
74152;SDS011;62505;46.070;14.492;2023-06-01T08:31:35;6.90;;;5.30;;
74152;SDS011;62505;46.070;14.492;2023-06-01T08:34:03;7.85;;;5.07;;
74152;SDS011;62505;46.070;14.492;2023-06-01T08:36:30;9.50;;;5.40;;
74152;SDS011;62505;46.070;14.492;2023-06-01T08:38:59;7.80;;;5.00;;
74152;SDS011;62505;46.070;14.492;2023-06-01T08:41:26;7.15;;;5.07;;
74152;SDS011;62505;46.070;14.492;2023-06-01T08:44:01;12.18;;;5.75;;
74152;SDS011;62505;46.070;14.492;2023-06-01T08:46:30;9.73;;;5.75;;
74152;SDS011;62505;46.070;14.492;2023-06-01T08:48:58;6.50;;;5.32;;
74152;SDS011;62505;46.070;14.492;2023-06-01T08:51:25;10.38;;;5.43;;
74152;SDS011;62505;46.070;14.492;2023-06-01T08:53:54;6.70;;;4.93;;
74152;SDS011;62505;46.070;14.492;2023-06-01T08:56:25;6.28;;;5.00;;
74152;SDS011;62505;46.070;14.492;2023-06-01T08:58:54;6.57;;;5.07;;
74152;SDS011;62505;46.070;14.492;2023-06-01T09:01:22;6.75;;;5.28;;
74152;SDS011;62505;46.070;14.492;2023-06-01T09:03:50;6.75;;;5.15;;
74152;SDS011;62505;46.070;14.492;2023-06-01T09:06:18;7.82;;;5.38;;
74152;SDS011;62505;46.070;14.492;2023-06-01T09:08:45;7.55;;;5.22;;
74152;SDS011;62505;46.070;14.492;2023-06-01T09:11:12;6.82;;;5.10;;
74152;SDS011;62505;46.070;14.492;2023-06-01T09:13:40;6.82;;;4.90;;
74152;SDS011;62505;46.070;14.492;2023-06-01T09:16:07;6.80;;;5.30;;
74152;SDS011;62505;46.070;14.492;2023-06-01T09:18:35;7.32;;;5.20;;
74152;SDS011;62505;46.070;14.492;2023-06-01T09:21:11;6.30;;;4.93;;
74152;SDS011;62505;46.070;14.492;2023-06-01T09:23:39;6.07;;;5.15;;
74152;SDS011;62505;46.070;14.492;2023-06-01T09:26:08;8.60;;;5.60;;
74152;SDS011;62505;46.070;14.492;2023-06-01T09:28:56;7.30;;;4.95;;
74152;SDS011;62505;46.070;14.492;2023-06-01T09:31:39;7.13;;;5.47;;
74152;SDS011;62505;46.070;14.492;2023-06-01T09:34:07;7.00;;;4.55;;
74152;SDS011;62505;46.070;14.492;2023-06-01T09:36:36;6.43;;;5.20;;
74152;SDS011;62505;46.070;14.492;2023-06-01T09:39:04;6.85;;;4.50;;
74152;SDS011;62505;46.070;14.492;2023-06-01T09:44:23;6.93;;;4.70;;
74152;SDS011;62505;46.070;14.492;2023-06-01T09:46:54;6.57;;;4.70;;
74152;SDS011;62505;46.070;14.492;2023-06-01T09:49:23;6.35;;;4.72;;
74152;SDS011;62505;46.070;14.492;2023-06-01T09:51:51;6.97;;;5.10;;
74152;SDS011;62505;46.070;14.492;2023-06-01T09:54:28;6.03;;;4.68;;
74152;SDS011;62505;46.070;14.492;2023-06-01T09:56:56;6.72;;;4.75;;
74152;SDS011;62505;46.070;14.492;2023-06-01T09:59:25;6.70;;;4.82;;
74152;SDS011;62505;46.070;14.492;2023-06-01T10:01:57;6.35;;;4.82;;
74152;SDS011;62505;46.070;14.492;2023-06-01T10:04:25;6.65;;;4.60;;
74152;SDS011;62505;46.070;14.492;2023-06-01T10:06:53;6.15;;;4.70;;
74152;SDS011;62505;46.070;14.492;2023-06-01T10:09:21;6.90;;;5.10;;
74152;SDS011;62505;46.070;14.492;2023-06-01T10:11:50;6.10;;;4.88;;
74152;SDS011;62505;46.070;14.492;2023-06-01T10:14:19;6.65;;;4.68;;
74152;SDS011;62505;46.070;14.492;2023-06-01T10:16:49;6.55;;;4.75;;
74152;SDS011;62505;46.070;14.492;2023-06-01T10:19:17;5.82;;;4.72;;
74152;SDS011;62505;46.070;14.492;2023-06-01T10:21:45;7.00;;;4.82;;
74152;SDS011;62505;46.070;14.492;2023-06-01T10:24:12;6.05;;;4.63;;
74152;SDS011;62505;46.070;14.492;2023-06-01T10:26:42;6.50;;;4.63;;
74152;SDS011;62505;46.070;14.492;2023-06-01T10:29:17;5.45;;;4.30;;
74152;SDS011;62505;46.070;14.492;2023-06-01T10:31:45;6.45;;;4.75;;
74152;SDS011;62505;46.070;14.492;2023-06-01T10:34:13;5.72;;;4.80;;
74152;SDS011;62505;46.070;14.492;2023-06-01T10:39:36;4.97;;;4.28;;
74152;SDS011;62505;46.070;14.492;2023-06-01T10:45:03;6.28;;;4.72;;
74152;SDS011;62505;46.070;14.492;2023-06-01T10:47:44;6.50;;;4.82;;
74152;SDS011;62505;46.070;14.492;2023-06-01T10:50:15;7.32;;;5.18;;
74152;SDS011;62505;46.070;14.492;2023-06-01T10:52:43;4.82;;;4.30;;
74152;SDS011;62505;46.070;14.492;2023-06-01T10:55:25;7.82;;;5.20;;
74152;SDS011;62505;46.070;14.492;2023-06-01T11:00:52;6.68;;;4.90;;
74152;SDS011;62505;46.070;14.492;2023-06-01T11:03:41;5.32;;;4.70;;
74152;SDS011;62505;46.070;14.492;2023-06-01T11:06:23;6.03;;;4.93;;
74152;SDS011;62505;46.070;14.492;2023-06-01T11:08:52;6.93;;;5.10;;
74152;SDS011;62505;46.070;14.492;2023-06-01T11:11:21;5.45;;;4.68;;
74152;SDS011;62505;46.070;14.492;2023-06-01T11:16:32;5.40;;;4.50;;
74152;SDS011;62505;46.070;14.492;2023-06-01T11:19:02;5.93;;;4.47;;
74152;SDS011;62505;46.070;14.492;2023-06-01T11:21:33;6.07;;;4.53;;
74152;SDS011;62505;46.070;14.492;2023-06-01T11:24:06;6.47;;;4.65;;
74152;SDS011;62505;46.070;14.492;2023-06-01T11:26:36;5.45;;;4.20;;
74152;SDS011;62505;46.070;14.492;2023-06-01T11:29:05;6.10;;;4.93;;
74152;SDS011;62505;46.070;14.492;2023-06-01T11:31:42;6.25;;;4.32;;
74152;SDS011;62505;46.070;14.492;2023-06-01T11:34:11;6.63;;;4.72;;
74152;SDS011;62505;46.070;14.492;2023-06-01T11:36:41;8.77;;;5.28;;
74152;SDS011;62505;46.070;14.492;2023-06-01T11:39:16;8.10;;;5.15;;
74152;SDS011;62505;46.070;14.492;2023-06-01T11:41:46;7.00;;;5.28;;
74152;SDS011;62505;46.070;14.492;2023-06-01T11:44:14;6.35;;;4.57;;
74152;SDS011;62505;46.070;14.492;2023-06-01T11:46:53;6.30;;;4.93;;
74152;SDS011;62505;46.070;14.492;2023-06-01T11:49:22;6.85;;;5.13;;
74152;SDS011;62505;46.070;14.492;2023-06-01T11:51:51;7.47;;;4.97;;
74152;SDS011;62505;46.070;14.492;2023-06-01T11:54:21;7.00;;;5.03;;
74152;SDS011;62505;46.070;14.492;2023-06-01T11:56:52;6.43;;;4.45;;
74152;SDS011;62505;46.070;14.492;2023-06-01T11:59:20;6.05;;;4.30;;
74152;SDS011;62505;46.070;14.492;2023-06-01T12:01:48;6.10;;;4.25;;
74152;SDS011;62505;46.070;14.492;2023-06-01T12:04:18;6.07;;;4.53;;
74152;SDS011;62505;46.070;14.492;2023-06-01T12:06:47;6.03;;;4.68;;
74152;SDS011;62505;46.070;14.492;2023-06-01T12:09:15;9.13;;;4.32;;
74152;SDS011;62505;46.070;14.492;2023-06-01T12:11:43;7.63;;;5.18;;
74152;SDS011;62505;46.070;14.492;2023-06-01T12:14:10;9.45;;;5.03;;
74152;SDS011;62505;46.070;14.492;2023-06-01T12:16:53;8.88;;;5.20;;
74152;SDS011;62505;46.070;14.492;2023-06-01T12:19:24;8.63;;;5.30;;
74152;SDS011;62505;46.070;14.492;2023-06-01T12:21:52;7.63;;;4.88;;
74152;SDS011;62505;46.070;14.492;2023-06-01T12:24:28;7.55;;;4.88;;
74152;SDS011;62505;46.070;14.492;2023-06-01T12:26:58;6.30;;;4.68;;
74152;SDS011;62505;46.070;14.492;2023-06-01T12:29:35;6.63;;;4.85;;
74152;SDS011;62505;46.070;14.492;2023-06-01T12:32:04;5.60;;;4.75;;
74152;SDS011;62505;46.070;14.492;2023-06-01T12:34:32;8.40;;;4.88;;
74152;SDS011;62505;46.070;14.492;2023-06-01T12:37:10;5.65;;;4.90;;
74152;SDS011;62505;46.070;14.492;2023-06-01T12:39:39;6.80;;;5.10;;
74152;SDS011;62505;46.070;14.492;2023-06-01T12:42:07;6.45;;;4.65;;
74152;SDS011;62505;46.070;14.492;2023-06-01T12:44:34;9.13;;;5.03;;
74152;SDS011;62505;46.070;14.492;2023-06-01T12:47:01;6.35;;;4.97;;
74152;SDS011;62505;46.070;14.492;2023-06-01T12:49:29;8.63;;;5.32;;
74152;SDS011;62505;46.070;14.492;2023-06-01T12:51:56;10.05;;;5.47;;
74152;SDS011;62505;46.070;14.492;2023-06-01T12:54:23;5.15;;;4.38;;
74152;SDS011;62505;46.070;14.492;2023-06-01T12:56:51;5.70;;;4.47;;
74152;SDS011;62505;46.070;14.492;2023-06-01T12:59:18;7.75;;;4.90;;
74152;SDS011;62505;46.070;14.492;2023-06-01T13:01:45;6.82;;;5.03;;
74152;SDS011;62505;46.070;14.492;2023-06-01T13:04:12;7.05;;;4.95;;
74152;SDS011;62505;46.070;14.492;2023-06-01T13:06:38;9.27;;;5.30;;
74152;SDS011;62505;46.070;14.492;2023-06-01T13:09:06;8.93;;;4.75;;
74152;SDS011;62505;46.070;14.492;2023-06-01T13:11:33;9.88;;;5.47;;
74152;SDS011;62505;46.070;14.492;2023-06-01T13:14:01;9.00;;;5.00;;
74152;SDS011;62505;46.070;14.492;2023-06-01T13:16:28;7.15;;;4.50;;
74152;SDS011;62505;46.070;14.492;2023-06-01T13:18:55;7.53;;;5.00;;
74152;SDS011;62505;46.070;14.492;2023-06-01T13:21:22;6.38;;;5.20;;
74152;SDS011;62505;46.070;14.492;2023-06-01T13:23:49;7.18;;;4.88;;
74152;SDS011;62505;46.070;14.492;2023-06-01T13:26:16;6.72;;;5.20;;
74152;SDS011;62505;46.070;14.492;2023-06-01T13:28:43;7.00;;;4.68;;
74152;SDS011;62505;46.070;14.492;2023-06-01T13:31:12;5.75;;;4.30;;
74152;SDS011;62505;46.070;14.492;2023-06-01T13:33:39;11.52;;;5.40;;
74152;SDS011;62505;46.070;14.492;2023-06-01T13:36:06;7.38;;;4.60;;
74152;SDS011;62505;46.070;14.492;2023-06-01T13:38:33;6.93;;;4.32;;
74152;SDS011;62505;46.070;14.492;2023-06-01T13:41:00;7.95;;;4.75;;
74152;SDS011;62505;46.070;14.492;2023-06-01T13:43:27;5.72;;;4.72;;
74152;SDS011;62505;46.070;14.492;2023-06-01T13:45:53;7.22;;;4.85;;
74152;SDS011;62505;46.070;14.492;2023-06-01T13:48:22;6.78;;;4.43;;
74152;SDS011;62505;46.070;14.492;2023-06-01T13:50:50;6.50;;;4.22;;
74152;SDS011;62505;46.070;14.492;2023-06-01T13:53:17;6.63;;;4.50;;
74152;SDS011;62505;46.070;14.492;2023-06-01T13:55:44;6.00;;;4.43;;
74152;SDS011;62505;46.070;14.492;2023-06-01T13:58:12;5.95;;;4.80;;
74152;SDS011;62505;46.070;14.492;2023-06-01T14:00:39;6.75;;;4.78;;
74152;SDS011;62505;46.070;14.492;2023-06-01T14:03:06;6.78;;;4.53;;
74152;SDS011;62505;46.070;14.492;2023-06-01T14:05:34;6.18;;;4.57;;
74152;SDS011;62505;46.070;14.492;2023-06-01T14:08:01;5.85;;;4.43;;
74152;SDS011;62505;46.070;14.492;2023-06-01T14:10:29;5.75;;;4.47;;
74152;SDS011;62505;46.070;14.492;2023-06-01T14:12:56;6.55;;;4.60;;
74152;SDS011;62505;46.070;14.492;2023-06-01T14:15:23;6.38;;;4.63;;
74152;SDS011;62505;46.070;14.492;2023-06-01T14:17:50;6.55;;;4.07;;
74152;SDS011;62505;46.070;14.492;2023-06-01T14:20:17;5.53;;;4.65;;
74152;SDS011;62505;46.070;14.492;2023-06-01T14:22:45;5.18;;;4.35;;
74152;SDS011;62505;46.070;14.492;2023-06-01T14:25:12;6.47;;;4.88;;
74152;SDS011;62505;46.070;14.492;2023-06-01T14:27:39;6.55;;;4.43;;
74152;SDS011;62505;46.070;14.492;2023-06-01T14:30:07;5.75;;;4.38;;
74152;SDS011;62505;46.070;14.492;2023-06-01T14:32:34;5.32;;;4.30;;
74152;SDS011;62505;46.070;14.492;2023-06-01T14:35:01;7.47;;;4.60;;
74152;SDS011;62505;46.070;14.492;2023-06-01T14:37:28;7.57;;;4.97;;
74152;SDS011;62505;46.070;14.492;2023-06-01T14:39:57;6.28;;;4.43;;
74152;SDS011;62505;46.070;14.492;2023-06-01T14:42:24;5.60;;;4.35;;
74152;SDS011;62505;46.070;14.492;2023-06-01T14:44:51;7.30;;;4.75;;
74152;SDS011;62505;46.070;14.492;2023-06-01T14:47:18;5.78;;;4.32;;
74152;SDS011;62505;46.070;14.492;2023-06-01T14:49:45;6.70;;;4.55;;
74152;SDS011;62505;46.070;14.492;2023-06-01T14:52:12;6.82;;;4.78;;
74152;SDS011;62505;46.070;14.492;2023-06-01T14:54:39;9.55;;;5.20;;
74152;SDS011;62505;46.070;14.492;2023-06-01T14:57:07;6.35;;;4.40;;